createdAt,value
2019-04-21T00:00:35.577Z,2.50
2019-04-21T00:03:11.477Z,3.23
2019-04-21T00:06:00.171Z,3.17
2019-04-21T00:08:33.560Z,3.07
2019-04-21T00:11:02.752Z,2.50
2019-04-21T00:13:25.332Z,2.50
2019-04-21T00:15:48.811Z,3.63
2019-04-21T00:18:40.826Z,2.73
2019-04-21T00:21:14.886Z,2.27
2019-04-21T00:23:59.057Z,3.90
2019-04-21T00:26:29.079Z,2.50
2019-04-21T00:29:04.027Z,2.63
2019-04-21T00:31:28.329Z,3.20
2019-04-21T00:33:46.318Z,2.57
2019-04-21T00:36:21.972Z,3.50
2019-04-21T00:39:17.100Z,3.03
2019-04-21T00:41:38.082Z,3.13
2019-04-21T00:44:00.724Z,2.83
2019-04-21T00:46:37.245Z,2.53
2019-04-21T00:49:05.954Z,2.63
2019-04-21T00:51:54.129Z,3.43
2019-04-21T00:54:29.575Z,2.93
2019-04-21T00:56:57.912Z,3.47
2019-04-21T00:59:25.936Z,2.60
2019-04-21T01:01:53.877Z,2.87
2019-04-21T01:04:33.862Z,3.43
2019-04-21T01:07:01.630Z,3.53
2019-04-21T01:09:29.076Z,2.50
2019-04-21T01:12:03.820Z,2.80
2019-04-21T01:14:45.309Z,2.83
2019-04-21T01:17:15.749Z,2.80
2019-04-21T01:19:38.583Z,2.73
2019-04-21T01:21:48.453Z,2.70
2019-04-21T01:24:25.941Z,3.57
2019-04-21T01:27:02.276Z,3.17
2019-04-21T01:29:42.812Z,4.70
2019-04-21T01:32:19.625Z,4.73
2019-04-21T01:34:45.620Z,3.30
2019-04-21T01:37:10.123Z,3.67
2019-04-21T01:39:57.179Z,3.30
2019-04-21T01:42:19.115Z,3.33
2019-04-21T01:44:53.603Z,3.73
2019-04-21T01:47:17.357Z,3.20
2019-04-21T01:49:43.142Z,4.37
2019-04-21T01:52:37.272Z,4.07
2019-04-21T01:55:12.731Z,5.40
2019-04-21T01:57:57.588Z,3.50
2019-04-21T02:00:40.819Z,3.17
2019-04-21T02:03:37.386Z,3.80
2019-04-21T02:06:14.900Z,4.00
2019-04-21T02:08:34.589Z,5.27
2019-04-21T02:11:11.245Z,4.03
2019-04-21T02:13:46.846Z,3.83
2019-04-21T02:16:12.457Z,3.93
2019-04-21T02:18:39.070Z,3.70
2019-04-21T02:21:00.109Z,4.47
2019-04-21T02:24:05.710Z,3.87
2019-04-21T02:26:16.446Z,5.23
2019-04-21T02:28:56.512Z,4.03
2019-04-21T02:33:58.596Z,4.33
2019-04-21T02:39:13.253Z,4.13
2019-04-21T02:44:08.291Z,5.73
2019-04-21T02:46:38.170Z,4.97
2019-04-21T02:49:11.100Z,5.70
2019-04-21T02:56:53.448Z,8.70
2019-04-21T03:02:29.045Z,5.37
2019-04-21T03:05:01.781Z,7.57
2019-04-21T03:07:31.904Z,6.07
2019-04-21T03:10:12.144Z,6.87
2019-04-21T03:12:40.435Z,7.20
2019-04-21T03:15:18.164Z,7.97
2019-04-21T03:20:17.198Z,9.30
2019-04-21T03:22:46.303Z,9.60
2019-04-21T03:25:26.708Z,7.87
2019-04-21T03:30:29.307Z,8.40
2019-04-21T03:36:05.511Z,9.53
2019-04-21T03:37:52.908Z,7.43
2019-04-21T03:40:22.404Z,8.17
2019-04-21T03:42:59.823Z,9.67
2019-04-21T03:45:32.647Z,9.50
2019-04-21T03:48:05.226Z,8.43
2019-04-21T03:50:33.770Z,10.00
2019-04-21T03:53:03.453Z,11.57
2019-04-21T04:09:09.243Z,9.63
2019-04-21T04:11:38.141Z,8.77
2019-04-21T04:14:12.947Z,10.10
2019-04-21T04:16:50.326Z,9.07
2019-04-21T04:19:05.866Z,10.13
2019-04-21T04:21:47.722Z,8.93
2019-04-21T04:24:13.693Z,8.23
2019-04-21T04:34:21.845Z,8.53
2019-04-21T04:40:03.589Z,10.43
2019-04-21T04:45:15.057Z,8.47
2019-04-21T04:47:54.677Z,7.97
2019-04-21T04:50:25.702Z,7.17
2019-04-21T04:55:06.934Z,8.30
2019-04-21T04:57:55.351Z,7.57
2019-04-21T05:00:19.789Z,7.03
2019-04-21T05:02:40.251Z,6.80
2019-04-21T05:05:19.504Z,7.30
2019-04-21T05:07:49.970Z,7.27
2019-04-21T05:10:25.261Z,6.33
2019-04-21T05:12:43.800Z,7.50
2019-04-21T05:15:16.487Z,7.57
2019-04-21T05:20:15.785Z,6.47
2019-04-21T05:22:50.354Z,6.43
2019-04-21T05:25:13.436Z,6.47
2019-04-21T05:27:45.173Z,8.07
2019-04-21T05:30:28.564Z,5.67
2019-04-21T05:33:19.014Z,5.90
2019-04-21T05:36:04.730Z,6.67
2019-04-21T05:38:53.100Z,5.80
2019-04-21T05:41:24.575Z,6.37
2019-04-21T05:44:01.493Z,6.40
2019-04-21T05:46:35.638Z,7.97
2019-04-21T05:49:02.897Z,11.40
2019-04-21T05:51:37.221Z,8.30
2019-04-21T05:54:23.067Z,9.90
2019-04-21T05:56:42.367Z,6.57
2019-04-21T05:59:15.234Z,6.70
2019-04-21T06:01:48.603Z,7.13
2019-04-21T06:04:26.510Z,11.43
2019-04-21T06:06:56.880Z,9.93
2019-04-21T06:09:32.081Z,11.53
2019-04-21T06:11:55.613Z,12.90
2019-04-21T06:14:29.399Z,10.70
2019-04-21T06:17:01.683Z,11.67
2019-04-21T06:19:36.961Z,7.33
2019-04-21T06:21:57.150Z,9.50
2019-04-21T06:24:40.724Z,7.83
2019-04-21T06:27:22.687Z,9.43
2019-04-21T06:29:28.625Z,20.50
2019-04-21T06:32:37.439Z,11.00
2019-04-21T06:34:49.539Z,11.67
2019-04-21T06:37:40.212Z,16.30
2019-04-21T06:40:11.819Z,10.90
2019-04-21T06:42:21.236Z,10.53
2019-04-21T06:44:57.500Z,9.93
2019-04-21T06:47:39.176Z,8.93
2019-04-21T06:50:00.475Z,10.30
2019-04-21T06:52:47.700Z,20.90
2019-04-21T06:57:35.492Z,39.03
2019-04-21T07:00:04.344Z,40.73
2019-04-21T07:02:42.264Z,30.37
2019-04-21T07:05:07.912Z,27.83
2019-04-21T07:07:52.121Z,20.53
2019-04-21T07:10:12.257Z,24.40
2019-04-21T07:12:43.078Z,22.23
2019-04-21T07:15:11.334Z,17.53
2019-04-21T07:17:46.936Z,18.40
2019-04-21T07:20:18.907Z,14.70
2019-04-21T07:22:48.050Z,17.73
2019-04-21T07:25:22.585Z,10.17
2019-04-21T07:27:52.413Z,10.77
2019-04-21T07:30:25.590Z,16.73
2019-04-21T07:33:09.257Z,13.33
2019-04-21T07:35:24.905Z,12.70
2019-04-21T07:37:57.644Z,11.73
2019-04-21T07:40:24.879Z,12.03
2019-04-21T07:42:51.439Z,12.77
2019-04-21T07:45:26.291Z,10.00
2019-04-21T07:48:11.313Z,10.90
2019-04-21T07:50:55.418Z,8.93
2019-04-21T07:53:36.766Z,18.50
2019-04-21T07:55:38.029Z,10.50
2019-04-21T07:58:26.527Z,13.10
2019-04-21T08:03:33.839Z,21.23
2019-04-21T08:06:02.334Z,21.90
2019-04-21T08:08:36.757Z,11.47
2019-04-21T08:11:07.734Z,11.83
2019-04-21T08:13:39.189Z,14.30
2019-04-21T08:16:12.782Z,17.73
2019-04-21T08:18:42.430Z,13.40
2019-04-21T08:21:17.801Z,10.53
2019-04-21T08:23:43.101Z,9.07
2019-04-21T08:26:33.707Z,16.67
2019-04-21T08:28:45.748Z,11.80
2019-04-21T08:31:30.786Z,13.10
2019-04-21T08:33:54.195Z,9.60
2019-04-21T08:36:24.564Z,9.00
2019-04-21T08:38:53.659Z,15.07
2019-04-21T08:41:20.212Z,9.70
2019-04-21T08:43:55.023Z,9.90
2019-04-21T08:46:23.878Z,42.73
2019-04-21T08:48:57.950Z,21.70
2019-04-21T08:54:05.508Z,15.43
2019-04-21T08:56:52.656Z,14.83
2019-04-21T08:59:47.165Z,17.70
2019-04-21T09:02:29.499Z,15.33
2019-04-21T09:04:52.686Z,13.23
2019-04-21T09:09:57.843Z,11.70
2019-04-21T09:12:30.991Z,11.33
2019-04-21T09:15:01.238Z,14.17
2019-04-21T09:17:28.522Z,8.60
2019-04-21T09:22:35.844Z,17.97
2019-04-21T09:25:06.669Z,8.77
2019-04-21T09:27:36.735Z,10.87
2019-04-21T09:29:55.968Z,8.23
2019-04-21T09:32:26.789Z,14.67
2019-04-21T09:34:53.520Z,7.10
2019-04-21T09:37:32.909Z,10.40
2019-04-21T09:39:57.410Z,10.07
2019-04-21T09:42:33.194Z,11.70
2019-04-21T09:45:02.347Z,10.43
2019-04-21T09:47:38.043Z,10.77
2019-04-21T09:50:03.041Z,12.73
2019-04-21T09:52:40.968Z,8.87
2019-04-21T09:55:10.255Z,8.57
2019-04-21T09:57:41.286Z,10.20
2019-04-21T10:00:13.159Z,10.97
2019-04-21T10:02:48.979Z,10.57
2019-04-21T10:05:23.084Z,13.80
2019-04-21T10:07:55.236Z,8.57
2019-04-21T10:10:25.255Z,12.67
2019-04-21T10:12:56.211Z,8.28
2019-04-21T10:15:27.858Z,8.33
2019-04-21T10:18:00.560Z,12.87
2019-04-21T10:20:30.895Z,12.40
2019-04-21T10:23:00.705Z,11.87
2019-04-21T10:25:30.690Z,10.67
2019-04-21T10:28:01.276Z,11.67
2019-04-21T10:30:31.195Z,10.47
2019-04-21T10:33:00.881Z,8.10
2019-04-21T10:35:31.045Z,7.77
2019-04-21T10:38:12.889Z,8.97
2019-04-21T10:40:35.242Z,13.80
2019-04-21T10:43:04.017Z,4.93
2019-04-21T10:45:34.802Z,11.07
2019-04-21T10:48:05.157Z,7.90
2019-04-21T10:50:34.946Z,7.47
2019-04-21T10:53:09.112Z,11.33
2019-04-21T10:55:54.313Z,9.00
2019-04-21T10:58:16.446Z,11.50
2019-04-21T11:00:48.319Z,8.93
2019-04-21T11:03:35.344Z,10.97
2019-04-21T11:06:06.559Z,13.53
2019-04-21T11:08:41.591Z,19.83
2019-04-21T11:11:08.241Z,15.10
2019-04-21T11:13:38.884Z,15.40
2019-04-21T11:16:08.940Z,12.60
2019-04-21T11:18:39.887Z,12.70
2019-04-21T11:21:10.815Z,12.67
2019-04-21T11:23:41.047Z,10.73
2019-04-21T11:26:12.005Z,10.43
2019-04-21T11:28:43.007Z,17.53
2019-04-21T11:31:13.307Z,8.87
2019-04-21T11:33:43.167Z,9.40
2019-04-21T11:36:13.364Z,11.20
2019-04-21T11:39:15.730Z,10.63
2019-04-21T11:41:34.039Z,9.03
2019-04-21T11:44:05.013Z,10.40
2019-04-21T11:46:36.186Z,9.50
2019-04-21T11:49:06.377Z,6.07
2019-04-21T11:51:37.299Z,7.43
2019-04-21T11:54:08.660Z,8.13
2019-04-21T11:56:38.939Z,6.33
2019-04-21T11:59:09.861Z,6.97
2019-04-21T12:01:39.782Z,7.27
2019-04-21T12:04:11.632Z,5.47
2019-04-21T12:06:46.532Z,5.60
2019-04-21T12:09:14.590Z,6.80
2019-04-21T12:11:45.378Z,6.17
2019-04-21T12:14:16.335Z,7.63
2019-04-21T12:16:47.025Z,4.37
2019-04-21T12:19:18.966Z,6.93
2019-04-21T12:22:02.858Z,7.20
2019-04-21T12:24:22.037Z,5.13
2019-04-21T12:26:53.880Z,5.50
2019-04-21T12:29:24.835Z,5.70
2019-04-21T12:32:16.194Z,5.83
2019-04-21T12:34:50.503Z,6.30
2019-04-21T12:37:19.717Z,5.83
2019-04-21T12:39:50.582Z,5.30
2019-04-21T12:42:20.979Z,6.70
2019-04-21T12:44:51.745Z,4.47
2019-04-21T12:47:22.070Z,3.90
2019-04-21T12:49:52.381Z,5.93
2019-04-21T12:52:24.576Z,6.20
2019-04-21T12:54:55.568Z,5.70
2019-04-21T12:57:25.551Z,6.00
2019-04-21T12:59:55.338Z,5.30
2019-04-21T13:02:25.411Z,5.60
2019-04-21T13:04:55.876Z,3.17
2019-04-21T13:07:25.911Z,6.77
2019-04-21T13:09:55.705Z,3.17
2019-04-21T13:12:25.421Z,6.00
2019-04-21T13:14:57.473Z,5.27
2019-04-21T13:17:27.781Z,5.67
2019-04-21T13:19:58.979Z,7.03
2019-04-21T13:22:29.990Z,7.20
2019-04-21T13:25:00.070Z,5.07
2019-04-21T13:27:31.828Z,4.20
2019-04-21T13:30:02.236Z,2.43
2019-04-21T13:32:33.189Z,2.93
2019-04-21T13:35:03.338Z,5.03
2019-04-21T13:37:33.411Z,5.40
2019-04-21T13:40:53.020Z,7.40
2019-04-21T13:43:10.684Z,4.10
2019-04-21T13:45:41.565Z,4.80
2019-04-21T13:48:12.769Z,7.23
2019-04-21T13:50:49.089Z,4.70
2019-04-21T13:53:18.885Z,4.67
2019-04-21T13:55:48.686Z,4.73
2019-04-21T13:58:18.373Z,5.03
2019-04-21T14:00:50.379Z,4.87
2019-04-21T14:03:21.774Z,2.73
2019-04-21T14:05:50.767Z,2.63
2019-04-21T14:08:21.118Z,4.53
2019-04-21T14:10:51.517Z,3.70
2019-04-21T14:13:22.526Z,3.70
2019-04-21T14:15:53.763Z,5.07
2019-04-21T14:18:24.709Z,3.30
2019-04-21T14:20:55.426Z,2.40
2019-04-21T14:23:32.450Z,3.87
2019-04-21T14:25:57.507Z,3.23
2019-04-21T14:28:28.258Z,5.63
2019-04-21T14:30:58.640Z,2.70
2019-04-21T14:33:29.781Z,4.13
2019-04-21T14:36:00.978Z,2.60
2019-04-21T14:38:32.129Z,3.83
2019-04-21T14:41:02.263Z,3.37
2019-04-21T14:43:32.123Z,2.00
2019-04-21T14:46:11.067Z,2.30
2019-04-21T14:48:59.252Z,2.73
2019-04-21T14:51:54.814Z,2.73
2019-04-21T14:54:44.575Z,2.70
2019-04-21T14:57:15.555Z,1.73
2019-04-21T14:59:45.306Z,5.33
2019-04-21T15:02:16.056Z,3.70
2019-04-21T15:04:45.997Z,2.03
2019-04-21T15:07:17.034Z,1.97
2019-04-21T15:09:53.702Z,3.30
2019-04-21T15:12:20.079Z,2.50
2019-04-21T15:14:49.991Z,1.73
2019-04-21T15:17:22.452Z,2.30
2019-04-21T15:19:59.769Z,1.87
2019-04-21T15:22:22.373Z,1.90
2019-04-21T15:24:52.174Z,1.93
2019-04-21T15:27:23.046Z,2.10
2019-04-21T15:29:53.077Z,2.50
2019-04-21T15:32:22.761Z,3.90
2019-04-21T15:34:52.444Z,2.30
2019-04-21T15:37:22.180Z,2.50
2019-04-21T15:39:53.044Z,2.60
2019-04-21T15:42:24.254Z,2.60
2019-04-21T15:44:56.699Z,2.90
2019-04-21T15:47:27.949Z,2.63
2019-04-21T15:50:04.660Z,2.40
2019-04-21T15:52:30.018Z,4.23
2019-04-21T15:55:06.589Z,4.03
2019-04-21T15:58:10.568Z,1.70
2019-04-21T16:01:00.717Z,1.93
2019-04-21T16:03:31.111Z,4.67
2019-04-21T16:06:01.369Z,1.63
2019-04-21T16:08:31.261Z,3.13
2019-04-21T16:11:04.558Z,5.67
2019-04-21T16:13:33.988Z,2.27
2019-04-21T16:16:06.262Z,1.77
2019-04-21T16:18:38.237Z,1.90
2019-04-21T16:21:08.324Z,3.70
2019-04-21T16:23:38.335Z,1.87
2019-04-21T16:26:08.787Z,1.93
2019-04-21T16:28:39.486Z,3.03
2019-04-21T16:31:10.153Z,2.00
2019-04-21T16:33:41.055Z,3.43
2019-04-21T16:36:13.122Z,2.17
2019-04-21T16:38:42.215Z,1.70
2019-04-21T16:41:12.144Z,2.73
2019-04-21T16:43:43.031Z,3.90
2019-04-21T16:46:13.638Z,2.57
2019-04-21T16:48:44.123Z,4.60
2019-04-21T16:51:15.104Z,3.47
2019-04-21T16:54:23.998Z,6.73
2019-04-21T16:57:19.879Z,1.73
2019-04-21T16:59:56.525Z,4.40
2019-04-21T17:02:26.550Z,2.07
2019-04-21T17:04:56.337Z,4.30
2019-04-21T17:07:26.315Z,2.90
2019-04-21T17:10:15.344Z,4.50
2019-04-21T17:12:45.659Z,2.83
2019-04-21T17:15:32.589Z,4.40
2019-04-21T17:18:05.652Z,7.73
2019-04-21T17:20:34.185Z,4.27
2019-04-21T17:22:51.621Z,4.00
2019-04-21T17:25:24.307Z,3.27
2019-04-21T17:27:53.263Z,6.77
2019-04-21T17:30:24.320Z,7.53
2019-04-21T17:32:55.378Z,6.33
2019-04-21T17:35:25.290Z,4.77
2019-04-21T17:37:56.181Z,4.10
2019-04-21T17:40:26.496Z,5.80
2019-04-21T17:43:02.014Z,5.43
2019-04-21T17:45:28.903Z,3.97
2019-04-21T17:48:03.191Z,3.77
2019-04-21T17:50:59.285Z,4.73
2019-04-21T17:53:44.875Z,2.07
2019-04-21T17:56:31.737Z,3.17
2019-04-21T17:58:58.521Z,5.00
2019-04-21T18:01:35.877Z,2.70
2019-04-21T18:04:10.910Z,2.00
2019-04-21T18:07:05.145Z,3.43
2019-04-21T18:09:51.743Z,2.43
2019-04-21T18:12:10.778Z,3.37
2019-04-21T18:14:28.393Z,4.43
2019-04-21T18:16:58.367Z,3.63
2019-04-21T18:19:32.410Z,7.77
2019-04-21T18:22:35.820Z,8.63
2019-04-21T18:25:06.737Z,8.63
2019-04-21T18:27:34.454Z,15.43
2019-04-21T18:30:08.370Z,16.97
2019-04-21T18:32:41.076Z,14.37
2019-04-21T18:35:29.286Z,13.30
2019-04-21T18:38:26.085Z,26.67
2019-04-21T18:40:52.833Z,15.00
2019-04-21T18:44:10.436Z,19.33
2019-04-21T18:46:40.019Z,16.00
2019-04-21T18:49:04.600Z,18.60
2019-04-21T18:52:02.508Z,13.77
2019-04-21T18:54:47.322Z,18.03
2019-04-21T18:57:07.883Z,13.07
2019-04-21T18:59:36.127Z,13.03
2019-04-21T19:02:06.356Z,15.93
2019-04-21T19:04:35.207Z,9.60
2019-04-21T19:07:18.020Z,11.33
2019-04-21T19:10:10.024Z,16.87
2019-04-21T19:12:31.916Z,14.37
2019-04-21T19:14:55.105Z,11.83
2019-04-21T19:20:07.661Z,10.57
2019-04-21T19:22:32.848Z,9.00
2019-04-21T19:25:04.804Z,7.80
2019-04-21T19:27:31.049Z,12.00
2019-04-21T19:32:34.580Z,8.33
2019-04-21T19:34:54.917Z,9.77
2019-04-21T19:37:25.865Z,8.07
2019-04-21T19:40:05.794Z,7.27
2019-04-21T19:42:35.503Z,6.03
2019-04-21T19:45:12.323Z,7.13
2019-04-21T19:47:48.677Z,11.13
2019-04-21T19:50:19.487Z,10.37
2019-04-21T19:52:39.991Z,6.07
2019-04-21T19:55:02.519Z,7.83
2019-04-21T19:57:32.380Z,7.10
2019-04-21T20:00:05.797Z,8.13
2019-04-21T20:02:34.366Z,6.40
2019-04-21T20:05:10.782Z,6.03
2019-04-21T20:07:49.181Z,9.20
2019-04-21T20:10:27.020Z,8.00
2019-04-21T20:12:56.999Z,7.70
2019-04-21T20:15:36.073Z,6.13
2019-04-21T20:17:58.568Z,6.60
2019-04-21T20:20:17.230Z,9.27
2019-04-21T20:22:51.868Z,8.90
2019-04-21T20:25:23.281Z,7.70
2019-04-21T20:28:05.236Z,7.67
2019-04-21T20:30:49.067Z,7.73
2019-04-21T20:33:42.833Z,6.67
2019-04-21T20:35:59.423Z,4.47
2019-04-21T20:38:19.369Z,5.60
2019-04-21T20:40:45.036Z,9.50
2019-04-21T20:43:30.696Z,6.30
2019-04-21T20:48:25.240Z,3.77
2019-04-21T20:51:01.956Z,6.37
2019-04-21T20:53:32.737Z,6.93
2019-04-21T20:55:59.199Z,7.27
2019-04-21T20:58:34.600Z,4.20
2019-04-21T21:03:42.273Z,7.77
2019-04-21T21:06:08.120Z,6.40
2019-04-21T21:08:45.384Z,6.27
2019-04-21T21:11:08.214Z,8.37
2019-04-21T21:14:07.399Z,4.90
2019-04-21T21:16:46.304Z,6.17
2019-04-21T21:19:17.105Z,6.60
2019-04-21T21:21:38.293Z,5.00
2019-04-21T21:24:12.678Z,5.63
2019-04-21T21:26:43.919Z,4.50
2019-04-21T21:29:18.364Z,4.83
2019-04-21T21:31:50.657Z,7.47
2019-04-21T21:34:21.402Z,4.23
2019-04-21T21:36:51.126Z,3.40
2019-04-21T21:39:15.589Z,4.43
2019-04-21T21:41:40.621Z,5.83
2019-04-21T21:44:09.199Z,5.73
2019-04-21T21:46:48.500Z,4.23
2019-04-21T21:49:23.677Z,4.40
2019-04-21T21:51:52.696Z,3.60
2019-04-21T21:54:09.885Z,4.47
2019-04-21T21:56:40.644Z,3.27
2019-04-21T21:59:16.483Z,5.43
2019-04-21T22:01:47.169Z,3.47
2019-04-21T22:04:20.842Z,4.87
2019-04-21T22:06:50.687Z,4.10
2019-04-21T22:09:16.617Z,3.97
2019-04-21T22:11:49.573Z,3.10
2019-04-21T22:14:25.896Z,2.90
2019-04-21T22:17:07.505Z,3.57
2019-04-21T22:19:48.902Z,2.90
2019-04-21T22:22:11.745Z,4.07
2019-04-21T22:24:39.922Z,4.97
2019-04-21T22:26:54.853Z,4.37
2019-04-21T22:29:27.863Z,2.63
2019-04-21T22:32:04.219Z,3.77
2019-04-21T22:34:32.700Z,5.13
2019-04-21T22:37:16.664Z,2.33
2019-04-21T22:39:51.621Z,2.80
2019-04-21T22:42:11.167Z,2.83
2019-04-21T22:44:32.709Z,4.07
2019-04-21T22:47:11.432Z,2.83
2019-04-21T22:49:34.882Z,3.47
2019-04-21T22:52:11.277Z,3.67
2019-04-21T22:54:40.826Z,3.60
2019-04-21T22:57:12.935Z,2.50
2019-04-21T22:59:38.560Z,4.30
2019-04-21T23:02:15.249Z,3.47
2019-04-21T23:04:43.740Z,2.13
2019-04-21T23:07:15.445Z,2.80
2019-04-21T23:09:43.210Z,4.80
2019-04-21T23:12:22.836Z,2.77
2019-04-21T23:14:53.434Z,4.00
2019-04-21T23:17:33.928Z,2.43
2019-04-21T23:20:09.962Z,2.27
2019-04-21T23:22:48.840Z,2.73
2019-04-21T23:25:08.778Z,3.50
2019-04-21T23:27:42.586Z,3.93
2019-04-21T23:30:19.971Z,2.90
2019-04-21T23:32:36.058Z,2.40
2019-04-21T23:34:56.137Z,2.60
2019-04-21T23:37:27.807Z,2.13
2019-04-21T23:40:04.400Z,2.97
2019-04-21T23:42:34.561Z,4.73
2019-04-21T23:45:02.922Z,2.63
2019-04-21T23:47:42.797Z,2.43
2019-04-21T23:50:19.522Z,3.20
2019-04-21T23:52:35.337Z,3.97
2019-04-21T23:55:05.616Z,2.20
2019-04-21T23:57:40.763Z,3.93
